Shawbury (EGOS)

METAR

EGOS 182350Z AUTO 15001KT 9000 BR OVC027/// 05/05 Q1027

QNH
1027
TEMP
5 °C
TAF

TAF TAF EGOS 171634Z 1718/1821 CNL